Time;durP1;ratioP1;P1;durP2;ratioP2;P2;SDS_P1;SDS_P2;PMS_P1;PMS_P2;Temp;Humidity;BMP_temperature;BMP_pressure;BME280_temperature;BME280_humidity;BME280_pressure;Samples;Min_cycle;Max_cycle;Signal;HPM_P1;HPM_P2
2023/06/19 00:00:50;;;;;;;10.32;7.35;;;;;;;;;;2533615;23;20010;-73
2023/06/19 00:02:11;;;;;;;12.75;7.45;;;;;;;;;;2532867;23;20017;-74
2023/06/19 00:03:32;;;;;;;13.10;7.60;;;;;;;;;;2533880;23;20017;-73
2023/06/19 00:04:53;;;;;;;10.57;6.78;;;;;;;;;;2533748;23;20466;-74
2023/06/19 00:06:14;;;;;;;12.93;7.40;;;;;;;;;;2520105;23;20018;-73
2023/06/19 00:07:37;;;;;;;10.25;7.57;;;;;;;;;;2528189;23;20014;-73
2023/06/19 00:08:58;;;;;;;10.02;7.38;;;;;;;;;;2521943;23;20018;-74
2023/06/19 00:10:20;;;;;;;11.48;7.45;;;;;;;;;;2527189;23;20009;-73
2023/06/19 00:11:41;;;;;;;12.75;7.57;;;;;;;;;;2533466;23;20017;-73
2023/06/19 00:13:02;;;;;;;13.88;8.20;;;;;;;;;;2533878;23;20479;-74
2023/06/19 00:14:23;;;;;;;11.32;7.65;;;;;;;;;;2532603;23;20018;-74
2023/06/19 00:15:44;;;;;;;18.63;9.10;;;;;;;;;;2525220;23;20014;-74
2023/06/19 00:17:06;;;;;;;13.00;7.22;;;;;;;;;;2531562;23;20021;-74
2023/06/19 00:18:28;;;;;;;15.48;8.25;;;;;;;;;;2530925;23;20017;-73
2023/06/19 00:19:49;;;;;;;;;;;;;;;;;;2531525;23;20014;-72
2023/06/19 00:21:10;;;;;;;14.02;7.45;;;;;;;;;;2532413;23;19901;-73
2023/06/19 00:22:31;;;;;;;13.52;7.95;;;;;;;;;;2531293;23;20344;-73
2023/06/19 00:23:52;;;;;;;17.90;8.52;;;;;;;;;;2530539;23;20082;-73
2023/06/19 00:25:13;;;;;;;14.98;7.30;;;;;;;;;;2532389;23;20006;-73
2023/06/19 00:26:37;;;;;;;16.02;9.00;;;;;;;;;;2518423;23;20010;-73
2023/06/19 00:27:58;;;;;;;12.77;8.50;;;;;;;;;;2528606;23;20017;-73
2023/06/19 00:29:22;;;;;;;14.35;8.18;;;;;;;;;;2530369;23;20041;-73
2023/06/19 00:30:42;;;;;;;18.40;9.10;;;;;;;;;;2521737;23;20456;-72
2023/06/19 00:32:03;;;;;;;14.73;7.90;;;;;;;;;;2525951;23;20010;-72
2023/06/19 00:33:24;;;;;;;13.18;7.60;;;;;;;;;;2533850;23;20352;-73
2023/06/19 00:34:45;;;;;;;19.60;8.80;;;;;;;;;;2532457;23;20014;-73
2023/06/19 00:36:10;;;;;;;17.05;8.65;;;;;;;;;;2533691;23;20458;-72
2023/06/19 00:37:32;;;;;;;12.00;7.45;;;;;;;;;;2519631;23;20007;-73
2023/06/19 00:38:53;;;;;;;14.15;7.78;;;;;;;;;;2518575;23;20063;-74
2023/06/19 00:40:19;;;;;;;18.00;8.82;;;;;;;;;;2528565;23;20017;-73
2023/06/19 00:41:40;;;;;;;14.02;7.85;;;;;;;;;;2532363;23;20038;-73
2023/06/19 00:43:01;;;;;;;11.27;7.43;;;;;;;;;;2519341;23;20034;-73
2023/06/19 00:44:22;;;;;;;9.55;6.88;;;;;;;;;;2529650;23;20006;-73
2023/06/19 00:45:43;;;;;;;12.52;7.65;;;;;;;;;;2532762;23;20389;-73
2023/06/19 00:47:04;;;;;;;11.40;6.95;;;;;;;;;;2523003;23;20010;-73
2023/06/19 00:48:29;;;;;;;12.52;7.43;;;;;;;;;;2527939;23;20437;-73
2023/06/19 00:49:51;;;;;;;11.55;7.50;;;;;;;;;;2534603;23;20017;-73
2023/06/19 00:51:12;;;;;;;12.20;7.82;;;;;;;;;;2519422;23;20015;-76
2023/06/19 00:52:33;;;;;;;12.55;7.13;;;;;;;;;;2531213;23;20010;-76
2023/06/19 00:53:54;;;;;;;12.00;7.13;;;;;;;;;;2534174;23;20014;-76
2023/06/19 00:55:16;;;;;;;15.05;7.70;;;;;;;;;;2534910;23;20496;-76
2023/06/19 00:56:39;;;;;;;11.70;7.25;;;;;;;;;;2519160;23;20523;-76
2023/06/19 00:58:01;;;;;;;11.32;6.90;;;;;;;;;;2531560;23;20010;-76
2023/06/19 00:59:22;;;;;;;11.02;7.45;;;;;;;;;;2531622;23;20022;-76
2023/06/19 01:00:43;;;;;;;11.55;7.47;;;;;;;;;;2533061;23;20021;-76
2023/06/19 01:02:04;;;;;;;18.85;8.20;;;;;;;;;;2532399;23;20474;-76
2023/06/19 01:03:26;;;;;;;9.75;7.30;;;;;;;;;;2534114;23;20023;-76
2023/06/19 01:04:47;;;;;;;9.63;6.72;;;;;;;;;;2532113;23;20459;-76
2023/06/19 01:06:17;;;;;;;12.65;7.45;;;;;;;;;;2534275;23;20014;-76
2023/06/19 01:07:47;;;;;;;13.60;7.20;;;;;;;;;;2532643;23;20014;-75
2023/06/19 01:09:08;;;;;;;14.07;7.72;;;;;;;;;;2531864;23;20010;-76
2023/06/19 01:10:36;;;;;;;10.70;7.35;;;;;;;;;;2532999;23;20006;-76
2023/06/19 01:12:17;;;;;;;13.35;7.57;;;;;;;;;;2518749;23;20011;-76
2023/06/19 01:13:38;;;;;;;11.45;7.03;;;;;;;;;;2535663;23;20010;-77
2023/06/19 01:15:06;;;;;;;13.68;8.40;;;;;;;;;;2533898;23;20036;-76
2023/06/19 01:16:28;;;;;;;11.63;7.07;;;;;;;;;;2533228;23;20447;-76
2023/06/19 01:17:52;;;;;;;15.52;8.18;;;;;;;;;;2518781;23;20018;-76
2023/06/19 01:19:16;;;;;;;14.93;7.82;;;;;;;;;;2529485;23;20440;-76
2023/06/19 01:20:37;;;;;;;14.20;7.97;;;;;;;;;;2522286;23;20018;-75
2023/06/19 01:22:01;;;;;;;15.95;8.25;;;;;;;;;;2515549;23;20018;-76
2023/06/19 01:23:22;;;;;;;13.85;7.63;;;;;;;;;;2526521;23;20348;-76
2023/06/19 01:24:42;;;;;;;12.25;7.45;;;;;;;;;;2532895;23;20010;-75
2023/06/19 01:26:03;;;;;;;9.98;6.45;;;;;;;;;;2533061;23;20013;-75
2023/06/19 01:27:25;;;;;;;12.80;6.72;;;;;;;;;;2521805;23;20431;-75
2023/06/19 01:28:46;;;;;;;13.68;7.38;;;;;;;;;;2528615;23;20010;-76
2023/06/19 01:30:09;;;;;;;9.70;6.60;;;;;;;;;;2531243;23;20471;-76
2023/06/19 01:31:29;;;;;;;11.95;7.13;;;;;;;;;;2531724;23;20393;-76
2023/06/19 01:32:54;;;;;;;14.05;7.18;;;;;;;;;;2532541;23;20417;-76
2023/06/19 01:34:19;;;;;;;13.25;7.07;;;;;;;;;;2521379;23;20026;-76
2023/06/19 01:35:42;;;;;;;17.05;7.55;;;;;;;;;;2528848;23;20014;-72
2023/06/19 01:37:05;;;;;;;13.40;7.30;;;;;;;;;;2533287;23;20024;-73
2023/06/19 01:38:27;;;;;;;9.60;6.05;;;;;;;;;;2532513;23;20009;-73
2023/06/19 01:39:49;;;;;;;12.05;6.85;;;;;;;;;;2530247;23;20018;-73
2023/06/19 01:41:10;;;;;;;14.07;6.67;;;;;;;;;;2530922;23;20006;-73
2023/06/19 01:42:33;;;;;;;13.73;6.82;;;;;;;;;;2531979;23;20010;-72
2023/06/19 01:43:55;;;;;;;11.35;6.70;;;;;;;;;;2532342;23;20065;-73
2023/06/19 01:45:16;;;;;;;12.68;6.15;;;;;;;;;;2531396;23;20006;-73
2023/06/19 01:46:38;;;;;;;13.88;6.50;;;;;;;;;;2519655;23;20017;-73
2023/06/19 01:48:03;;;;;;;11.45;6.10;;;;;;;;;;2527250;23;20444;-73
2023/06/19 01:49:27;;;;;;;19.00;8.57;;;;;;;;;;2523203;23;20475;-73
2023/06/19 01:50:48;;;;;;;12.73;5.47;;;;;;;;;;2531966;23;20041;-73
2023/06/19 01:52:09;;;;;;;11.00;6.07;;;;;;;;;;2517482;23;20034;-72
2023/06/19 01:53:31;;;;;;;8.18;5.10;;;;;;;;;;2520122;23;20037;-73
2023/06/19 01:54:53;;;;;;;;;;;;;;;;;;2529954;23;20018;-73
2023/06/19 01:56:17;;;;;;;7.50;5.00;;;;;;;;;;2533324;23;19927;-73
2023/06/19 01:57:38;;;;;;;8.55;5.40;;;;;;;;;;2531290;23;20021;-74
2023/06/19 01:59:00;;;;;;;13.20;6.25;;;;;;;;;;2519380;23;20356;-74
2023/06/19 02:00:23;;;;;;;;;;;;;;;;;;2520935;23;20038;-74
2023/06/19 02:01:45;;;;;;;12.30;5.88;;;;;;;;;;2526438;23;19901;-75
2023/06/19 02:05:39;;;;;;;;;;;;;;;;;;;;;
2023/06/19 02:09:55;;;;;;;8.57;5.32;;;;;;;;;;2508322;23;20035;-74
2023/06/19 02:21:12;;;;;;;;;;;;;;;;;;;;;
2023/06/19 02:23:19;;;;;;;;;;;;;;;;;;;;;
2023/06/19 02:25:24;;;;;;;7.10;5.05;;;;;;;;;;2416426;24;20030;-73
2023/06/19 02:26:45;;;;;;;11.38;5.43;;;;;;;;;;2444758;24;20482;-72
2023/06/19 02:28:06;;;;;;;11.70;5.20;;;;;;;;;;2458689;24;20359;-72
2023/06/19 02:29:29;;;;;;;8.85;5.40;;;;;;;;;;2462369;24;20396;-72
2023/06/19 02:30:50;;;;;;;8.73;5.30;;;;;;;;;;2497326;23;20349;-73
2023/06/19 02:32:11;;;;;;;13.18;5.75;;;;;;;;;;2521090;23;20336;-73
2023/06/19 02:33:32;;;;;;;17.73;6.93;;;;;;;;;;2530746;23;20321;-73
2023/06/19 02:34:53;;;;;;;9.63;5.40;;;;;;;;;;2533657;23;20427;-73
2023/06/19 02:36:19;;;;;;;11.43;4.65;;;;;;;;;;2533966;23;20010;-73
2023/06/19 02:37:42;;;;;;;14.70;6.57;;;;;;;;;;2532887;23;20010;-73
2023/06/19 02:47:52;;;;;;;;;;;;;;;;;;;;;
2023/06/19 02:57:28;;;;;;;10.35;4.53;;;;;;;;;;2485161;23;20020;-73
2023/06/19 02:58:49;;;;;;;14.65;5.72;;;;;;;;;;2524425;23;20352;-75
2023/06/19 03:00:11;;;;;;;12.07;5.45;;;;;;;;;;2534034;23;20017;-75
2023/06/19 03:01:33;;;;;;;15.57;5.35;;;;;;;;;;2534067;23;20021;-75
2023/06/19 03:02:54;;;;;;;6.95;4.20;;;;;;;;;;2535396;23;20006;-75
2023/06/19 03:04:15;;;;;;;11.10;5.22;;;;;;;;;;2532226;23;20017;-75
2023/06/19 03:05:36;;;;;;;10.32;4.75;;;;;;;;;;2519513;23;20018;-75
2023/06/19 03:06:57;;;;;;;10.45;5.10;;;;;;;;;;2529498;23;20336;-75
2023/06/19 03:08:18;;;;;;;17.52;6.55;;;;;;;;;;2520835;23;20344;-75
2023/06/19 03:09:39;;;;;;;14.60;6.15;;;;;;;;;;2530592;23;20053;-75
2023/06/19 03:11:00;;;;;;;11.00;5.07;;;;;;;;;;2532764;23;20018;-75
2023/06/19 03:12:21;;;;;;;8.93;4.70;;;;;;;;;;2523886;23;20023;-75
2023/06/19 03:13:47;;;;;;;7.85;4.68;;;;;;;;;;2530408;23;20010;-75
2023/06/19 03:15:08;;;;;;;10.75;5.05;;;;;;;;;;2534719;23;20473;-75
2023/06/19 03:16:29;;;;;;;8.30;4.25;;;;;;;;;;2532334;23;20010;-75
2023/06/19 03:17:50;;;;;;;6.45;4.22;;;;;;;;;;2532632;23;20347;-75
2023/06/19 03:19:11;;;;;;;14.68;6.38;;;;;;;;;;2533932;23;20014;-75
2023/06/19 03:20:32;;;;;;;10.90;5.72;;;;;;;;;;2531813;23;20006;-75
2023/06/19 03:21:53;;;;;;;8.88;5.10;;;;;;;;;;2531573;23;20010;-75
2023/06/19 03:23:14;;;;;;;21.48;7.28;;;;;;;;;;2530654;23;20460;-75
2023/06/19 03:24:35;;;;;;;8.70;4.60;;;;;;;;;;2532270;23;20010;-75
2023/06/19 03:25:57;;;;;;;11.25;6.40;;;;;;;;;;2520831;23;20010;-75
2023/06/19 03:27:18;;;;;;;13.23;5.35;;;;;;;;;;2528790;23;20017;-73
2023/06/19 03:28:39;;;;;;;16.35;6.57;;;;;;;;;;2522404;23;20372;-74
2023/06/19 03:30:00;;;;;;;12.13;5.33;;;;;;;;;;2529330;23;20014;-73
2023/06/19 03:31:25;;;;;;;12.15;5.45;;;;;;;;;;2517157;23;20440;-73
2023/06/19 03:35:33;;;;;;;;;;;;;;;;;;;;;
2023/06/19 03:36:55;;;;;;;14.40;6.00;;;;;;;;;;2529180;23;20010;-73
2023/06/19 03:38:16;;;;;;;12.52;5.72;;;;;;;;;;2522351;23;20476;-73
2023/06/19 03:39:38;;;;;;;13.75;5.95;;;;;;;;;;2528302;23;20013;-73
2023/06/19 03:40:59;;;;;;;13.17;5.33;;;;;;;;;;2503201;23;20014;-73
2023/06/19 03:42:21;;;;;;;9.85;4.90;;;;;;;;;;2524990;23;20738;-73
2023/06/19 03:43:42;;;;;;;;;;;;;;;;;;2517806;23;20015;-73
2023/06/19 03:45:04;;;;;;;14.85;6.43;;;;;;;;;;2528905;23;19901;-73
2023/06/19 03:46:25;;;;;;;7.50;4.78;;;;;;;;;;2521567;23;20018;-72
2023/06/19 03:47:46;;;;;;;12.80;5.90;;;;;;;;;;2530035;23;20018;-73
2023/06/19 03:49:09;;;;;;;12.05;5.55;;;;;;;;;;2520313;23;20389;-73
2023/06/19 03:50:31;;;;;;;26.02;9.27;;;;;;;;;;2526012;23;20036;-73
2023/06/19 03:51:52;;;;;;;;;;;;;;;;;;2520949;23;20097;-73
2023/06/19 04:00:12;;;;;;;9.02;5.45;;;;;;;;;;2508193;23;20082;-73
2023/06/19 04:10:19;;;;;;;;;;;;;;;;;;;;;
2023/06/19 04:15:49;;;;;;;7.47;4.93;;;;;;;;;;2496133;23;20004;-73
2023/06/19 04:17:25;;;;;;;12.50;6.45;;;;;;;;;;2496009;23;20015;-74
2023/06/19 04:18:46;;;;;;;10.20;6.20;;;;;;;;;;2483589;23;20366;-73
2023/06/19 04:20:10;;;;;;;12.48;5.80;;;;;;;;;;2491650;23;20022;-74
2023/06/19 04:21:32;;;;;;;12.13;6.10;;;;;;;;;;2492963;23;20015;-73
2023/06/19 04:22:53;;;;;;;8.50;5.30;;;;;;;;;;2486092;23;20012;-74
2023/06/19 04:24:15;;;;;;;18.20;7.27;;;;;;;;;;2496440;23;20012;-74
2023/06/19 04:25:37;;;;;;;14.70;6.30;;;;;;;;;;2521143;23;20387;-73
2023/06/19 04:27:33;;;;;;;;;;;;;;;;;;;;;
2023/06/19 04:33:44;;;;;;;;;;;;;;;;;;;;;
2023/06/19 04:38:15;;;;;;;;;;;;;;;;;;;;;
2023/06/19 04:45:07;;;;;;;18.85;7.43;;;;;;;;;;2521245;23;20005;-74
2023/06/19 05:00:43;;;;;;;17.98;7.28;;;;;;;;;;2507548;23;20041;-73
2023/06/19 05:08:03;;;;;;;10.88;6.22;;;;;;;;;;2506906;23;20007;-73
2023/06/19 05:09:37;;;;;;;12.30;6.88;;;;;;;;;;2495323;23;20072;-73
2023/06/19 05:11:00;;;;;;;21.42;8.63;;;;;;;;;;2506039;23;20015;-73
2023/06/19 08:23:23;;;;;;;33.50;16.60;;;;;;;;;;2527401;23;20026;-78
2023/06/19 08:24:55;;;;;;;15.88;10.77;;;;;;;;;;2535162;23;20018;-79
2023/06/19 08:26:32;;;;;;;13.00;9.65;;;;;;;;;;2535062;23;20325;-80
2023/06/19 08:27:53;;;;;;;16.65;10.75;;;;;;;;;;2545038;23;20013;-80
2023/06/19 08:29:40;;;;;;;13.05;8.88;;;;;;;;;;2546006;23;20351;-79
2023/06/19 08:31:12;;;;;;;17.83;10.07;;;;;;;;;;2546770;23;20033;-79
2023/06/19 08:32:46;;;;;;;17.73;10.75;;;;;;;;;;2531384;23;20013;-79
2023/06/19 08:34:23;;;;;;;15.38;10.23;;;;;;;;;;2530315;23;20029;-78
2023/06/19 08:36:22;;;;;;;18.98;10.45;;;;;;;;;;2530876;23;20006;-79
2023/06/19 08:37:54;;;;;;;18.02;10.20;;;;;;;;;;2543073;23;20435;-78
2023/06/19 08:39:38;;;;;;;;;;;;;;;;;;;;;
2023/06/19 08:42:00;;;;;;;19.05;11.82;;;;;;;;;;2540841;23;20017;-79
2023/06/19 08:43:14;;;;;;;;;;;;;;;;;;;;;
2023/06/19 08:45:04;;;;;;;20.58;10.93;;;;;;;;;;2534562;23;20073;-78
2023/06/19 08:46:45;;;;;;;16.52;9.88;;;;;;;;;;2546770;23;20014;-78
2023/06/19 08:50:20;;;;;;;14.57;9.85;;;;;;;;;;2544946;23;20009;-78
2023/06/19 08:51:44;;;;;;;23.85;11.60;;;;;;;;;;2506686;23;20012;-79
2023/06/19 08:53:21;;;;;;;29.63;12.93;;;;;;;;;;2539831;23;20010;-78
2023/06/19 08:55:06;;;;;;;13.68;9.50;;;;;;;;;;2533081;23;20017;-81
2023/06/19 08:56:56;;;;;;;14.80;10.52;;;;;;;;;;2532201;23;20013;-79
2023/06/19 08:58:37;;;;;;;16.25;9.55;;;;;;;;;;2532714;23;20017;-79
2023/06/19 09:00:10;;;;;;;16.88;10.43;;;;;;;;;;2535580;23;20081;-79
2023/06/19 09:01:57;;;;;;;15.25;9.15;;;;;;;;;;2531827;23;20352;-80
2023/06/19 09:10:04;;;;;;;20.90;11.60;;;;;;;;;;2483747;23;20066;-79
2023/06/19 09:16:01;;;;;;;26.58;13.88;;;;;;;;;;2480900;23;20011;-79
2023/06/19 09:22:09;;;;;;;14.75;9.75;;;;;;;;;;2471187;24;20016;-78
2023/06/19 09:25:50;;;;;;;18.48;9.88;;;;;;;;;;2449568;24;20017;-82
2023/06/19 09:27:15;;;;;;;15.55;9.93;;;;;;;;;;2439064;24;20058;-81
2023/06/19 09:28:46;;;;;;;22.08;11.00;;;;;;;;;;2453211;24;20009;-80
2023/06/19 09:32:28;;;;;;;12.43;8.95;;;;;;;;;;2523292;23;20035;-80
2023/06/19 09:33:58;;;;;;;14.27;9.35;;;;;;;;;;2521439;23;20085;-80
2023/06/19 09:35:24;;;;;;;15.68;9.75;;;;;;;;;;2520145;23;20007;-79
2023/06/19 09:37:07;;;;;;;17.13;10.57;;;;;;;;;;2534263;23;20467;-79
2023/06/19 09:38:28;;;;;;;17.45;10.45;;;;;;;;;;2534912;23;20452;-79
2023/06/19 09:39:54;;;;;;;12.35;9.63;;;;;;;;;;2522056;23;20364;-80
2023/06/19 09:41:26;;;;;;;15.50;11.32;;;;;;;;;;2520036;23;20010;-80
2023/06/19 09:42:54;;;;;;;14.30;10.20;;;;;;;;;;2530852;23;20010;-78
2023/06/19 09:44:29;;;;;;;34.47;15.57;;;;;;;;;;2517393;23;20013;-79
2023/06/19 09:45:53;;;;;;;18.75;10.90;;;;;;;;;;2522209;23;20034;-79
2023/06/19 09:47:20;;;;;;;13.20;9.45;;;;;;;;;;2521116;23;20010;-79
2023/06/19 09:48:42;;;;;;;15.85;10.07;;;;;;;;;;2525520;23;20006;-79
2023/06/19 09:50:04;;;;;;;14.63;9.00;;;;;;;;;;2521772;23;19991;-79
2023/06/19 09:51:30;;;;;;;12.95;8.60;;;;;;;;;;2519499;23;20021;-79
2023/06/19 09:52:54;;;;;;;18.25;9.90;;;;;;;;;;2520838;23;20010;-79
2023/06/19 09:54:28;;;;;;;40.83;17.33;;;;;;;;;;2502592;23;20014;-79
2023/06/19 09:56:14;;;;;;;15.27;8.98;;;;;;;;;;2518835;23;20372;-80
2023/06/19 09:57:55;;;;;;;15.35;10.10;;;;;;;;;;2535272;23;20014;-80
2023/06/19 09:59:25;;;;;;;13.35;9.40;;;;;;;;;;2521477;23;20580;-79
2023/06/19 10:00:56;;;;;;;12.25;8.60;;;;;;;;;;2518791;23;20066;-79
2023/06/19 10:02:21;;;;;;;12.00;7.97;;;;;;;;;;2520767;23;20041;-81
2023/06/19 10:04:04;;;;;;;18.25;9.52;;;;;;;;;;2517635;23;20468;-79
2023/06/19 10:05:40;;;;;;;13.13;8.52;;;;;;;;;;2491247;23;20026;-79
2023/06/19 10:07:24;;;;;;;18.38;8.95;;;;;;;;;;2504071;23;20472;-80
2023/06/19 10:09:09;;;;;;;16.13;9.63;;;;;;;;;;2520573;23;20006;-80
2023/06/19 10:11:11;;;;;;;13.90;9.00;;;;;;;;;;2519960;23;20022;-81
2023/06/19 10:13:05;;;;;;;12.50;8.57;;;;;;;;;;2498196;23;20437;-80
2023/06/19 10:18:31;;;;;;;;;;;;;;;;;;;;;
2023/06/19 10:23:19;;;;;;;;;;;;;;;;;;;;;
2023/06/19 10:24:38;;;;;;;13.68;9.02;;;;;;;;;;2524574;23;20017;-80
2023/06/19 10:28:32;;;;;;;29.15;14.23;;;;;;;;;;2514906;23;20007;-80
2023/06/19 10:29:56;;;;;;;16.00;10.50;;;;;;;;;;2532775;23;20451;-79
2023/06/19 10:32:05;;;;;;;22.27;11.73;;;;;;;;;;2530402;23;20017;-80
2023/06/19 10:33:52;;;;;;;17.05;9.65;;;;;;;;;;2519449;23;20014;-80
2023/06/19 10:37:04;;;;;;;19.52;11.48;;;;;;;;;;2488812;23;20360;-79
2023/06/19 10:38:44;;;;;;;;;;;;;;;;;;;;;
2023/06/19 10:40:29;;;;;;;14.60;8.73;;;;;;;;;;2521668;23;20014;-79
2023/06/19 10:42:16;;;;;;;;;;;;;;;;;;;;;
2023/06/19 10:44:00;;;;;;;15.30;9.55;;;;;;;;;;2520946;23;20010;-79
2023/06/19 10:45:33;;;;;;;31.73;17.58;;;;;;;;;;2488799;23;20028;-79
2023/06/19 10:49:03;;;;;;;16.58;9.98;;;;;;;;;;2450579;24;20013;-78
2023/06/19 10:50:36;;;;;;;15.27;8.77;;;;;;;;;;2467897;24;20016;-80
2023/06/19 10:52:15;;;;;;;;;;;;;;;;;;;;;
2023/06/19 10:54:01;;;;;;;14.95;9.27;;;;;;;;;;2486568;23;20572;-79
2023/06/19 10:55:55;;;;;;;;;;;;;;;;;;;;;
2023/06/19 11:01:51;;;;;;;10.10;7.50;;;;;;;;;;2482498;23;20018;-79
2023/06/19 11:07:37;;;;;;;13.52;9.05;;;;;;;;;;2494919;23;20018;-79
2023/06/19 11:09:30;;;;;;;24.23;10.40;;;;;;;;;;2486390;23;20011;-80
2023/06/19 11:11:10;;;;;;;;;;;;;;;;;;;;;
2023/06/19 11:14:55;;;;;;;17.10;8.90;;;;;;;;;;2509670;23;20010;-79
2023/06/19 11:16:33;;;;;;;52.78;18.38;;;;;;;;;;2486226;23;20014;-79
2023/06/19 11:20:50;;;;;;;;;;;;;;;;;;;;;
2023/06/19 11:22:29;;;;;;;;;;;;;;;;;;;;;
2023/06/19 11:35:36;;;;;;;;;;;;;;;;;;;;;
2023/06/19 11:37:20;;;;;;;14.10;8.07;;;;;;;;;;2439738;24;20017;-80
2023/06/19 11:39:13;;;;;;;13.90;8.70;;;;;;;;;;2480833;23;20007;-80
2023/06/19 11:45:01;;;;;;;12.85;7.95;;;;;;;;;;2462037;24;20443;-81
2023/06/19 11:46:47;;;;;;;;;;;;;;;;;;;;;
2023/06/19 11:48:13;;;;;;;15.50;8.68;;;;;;;;;;2497069;23;20015;-80
2023/06/19 11:50:06;;;;;;;13.05;7.68;;;;;;;;;;2496903;23;20011;-80
2023/06/19 11:51:42;;;;;;;21.45;9.35;;;;;;;;;;2494390;23;20022;-80
2023/06/19 11:53:32;;;;;;;11.77;7.88;;;;;;;;;;2498155;23;20067;-80
2023/06/19 11:55:04;;;;;;;18.23;10.40;;;;;;;;;;2499893;23;20355;-82
2023/06/19 11:59:03;;;;;;;13.52;7.93;;;;;;;;;;2496396;23;20023;-82
2023/06/19 12:00:51;;;;;;;11.90;7.45;;;;;;;;;;2481118;23;20019;-81
2023/06/19 12:06:55;;;;;;;17.33;9.43;;;;;;;;;;2473431;23;20011;-81
2023/06/19 12:12:31;;;;;;;13.43;8.80;;;;;;;;;;2442209;24;20013;-79
2023/06/19 12:16:31;;;;;;;11.68;7.25;;;;;;;;;;2437988;24;20021;-80
2023/06/19 12:27:05;;;;;;;13.93;8.32;;;;;;;;;;2400202;24;20026;-82
2023/06/19 12:29:03;;;;;;;13.77;7.25;;;;;;;;;;2414313;24;20480;-81
2023/06/19 12:32:32;;;;;;;23.90;10.70;;;;;;;;;;2400038;24;20012;-81
2023/06/19 12:44:27;;;;;;;11.07;7.05;;;;;;;;;;2520106;23;20010;-81
2023/06/19 12:46:40;;;;;;;15.60;7.25;;;;;;;;;;2485980;23;20011;-80
2023/06/19 12:48:18;;;;;;;18.80;8.82;;;;;;;;;;2469467;23;20020;-81
2023/06/19 12:50:00;;;;;;;;;;;;;;;;;;;;;
2023/06/19 12:53:44;;;;;;;18.13;8.68;;;;;;;;;;2494484;23;20433;-80
2023/06/19 12:55:39;;;;;;;;;;;;;;;;;;;;;
2023/06/19 12:57:21;;;;;;;;;;;;;;;;;;;;;
2023/06/19 13:01:14;;;;;;;11.05;7.38;;;;;;;;;;2485680;23;20051;-80
2023/06/19 13:02:56;;;;;;;;;;;;;;;;;;;;;
2023/06/19 13:04:29;;;;;;;15.05;8.40;;;;;;;;;;2494831;23;20007;-79
2023/06/19 13:08:51;;;;;;;;;;;;;;;;;;;;;
2023/06/19 13:11:25;;;;;;;9.32;6.55;;;;;;;;;;2495831;23;20008;-80
2023/06/19 13:12:37;;;;;;;;;;;;;;;;;;2507644;23;20015;-80
2023/06/19 13:14:26;;;;;;;;;;;;;;;;;;;;;
2023/06/19 13:16:11;;;;;;;13.15;7.43;;;;;;;;;;2520644;23;20017;-80
2023/06/19 13:19:26;;;;;;;10.13;6.85;;;;;;;;;;2517949;23;20006;-80
2023/06/19 13:21:17;;;;;;;11.88;7.43;;;;;;;;;;2508181;23;20361;-81
2023/06/19 13:22:54;;;;;;;9.85;6.57;;;;;;;;;;2520623;23;20030;-80
2023/06/19 13:26:51;;;;;;;;;;;;;;;;;;;;;
2023/06/19 13:30:57;;;;;;;;;;;;;;;;;;;;;
2023/06/19 13:37:10;;;;;;;12.68;6.88;;;;;;;;;;2460410;24;20012;-79
2023/06/19 13:38:52;;;;;;;25.23;11.57;;;;;;;;;;2443865;23;20446;-80
2023/06/19 13:43:13;;;;;;;;;;;;;;;;;;;;;
2023/06/19 13:51:58;;;;;;;;;;;;;;;;;;;;;
2023/06/19 13:56:08;;;;;;;;;;;;;;;;;;;;;
2023/06/19 14:06:31;;;;;;;12.75;7.18;;;;;;;;;;2404116;24;20023;-81
2023/06/19 14:46:39;;;;;;;;;;;;;;;;;;;;;
2023/06/19 14:48:41;;;;;;;21.05;9.50;;;;;;;;;;2300343;25;20020;-81
2023/06/19 14:55:12;;;;;;;26.08;11.43;;;;;;;;;;2279957;25;20039;-83
2023/06/19 15:07:22;;;;;;;19.10;8.77;;;;;;;;;;2309957;25;20058;-82
2023/06/19 15:17:38;;;;;;;13.90;7.05;;;;;;;;;;2320716;25;20431;-82
2023/06/19 15:24:20;;;;;;;20.70;9.75;;;;;;;;;;2340615;25;20085;-81
2023/06/19 15:30:01;;;;;;;;;;;;;;;;;;;;;
2023/06/19 15:35:42;;;;;;;;;;;;;;;;;;;;;
2023/06/19 15:40:14;;;;;;;18.70;8.70;;;;;;;;;;2405831;24;20054;-79
2023/06/19 15:45:58;;;;;;;19.25;8.75;;;;;;;;;;2394809;24;20011;-78
2023/06/19 15:49:18;;;;;;;;;;;;;;;;;;2394402;24;20396;-79
2023/06/19 15:53:30;;;;;;;27.95;10.45;;;;;;;;;;2395251;24;20018;-79
2023/06/19 15:55:48;;;;;;;;;;;;;;;;;;;;;
2023/06/19 15:57:28;;;;;;;15.15;7.95;;;;;;;;;;2495877;23;20342;-79
2023/06/19 15:59:21;;;;;;;;;;;;;;;;;;;;;
2023/06/19 16:01:12;;;;;;;16.33;8.07;;;;;;;;;;2471936;24;20012;-79
2023/06/19 16:03:09;;;;;;;12.45;7.20;;;;;;;;;;2470922;24;20024;-80
2023/06/19 16:15:33;;;;;;;;;;;;;;;;;;;;;
2023/06/19 16:17:43;;;;;;;;;;;;;;;;;;;;;
2023/06/19 16:19:28;;;;;;;;;;;;;;;;;;;;;
2023/06/19 16:21:10;;;;;;;21.85;14.55;;;;;;;;;;2402696;24;20026;-78
2023/06/19 16:24:51;;;;;;;;;;;;;;;;;;;;;
2023/06/19 16:26:45;;;;;;;394.65;202.27;;;;;;;;;;2405351;24;20097;-78
2023/06/19 16:28:33;;;;;;;179.95;100.63;;;;;;;;;;2426291;24;20078;-79
2023/06/19 16:32:42;;;;;;;;;;;;;;;;;;;;;
2023/06/19 16:34:56;;;;;;;;;;;;;;;;;;;;;
2023/06/19 16:39:54;;;;;;;265.60;142.43;;;;;;;;;;2460188;24;20013;-79
2023/06/19 16:42:12;;;;;;;247.13;121.05;;;;;;;;;;2460314;24;20403;-79
2023/06/19 16:44:04;;;;;;;332.30;187.68;;;;;;;;;;2449574;24;20078;-78
2023/06/19 16:49:53;;;;;;;77.57;49.45;;;;;;;;;;2476299;23;20012;-78
2023/06/19 16:51:32;;;;;;;128.55;79.72;;;;;;;;;;2469599;24;20035;-77
2023/06/19 16:53:06;;;;;;;;;;;;;;;;;;;;;
2023/06/19 16:54:39;;;;;;;413.98;202.25;;;;;;;;;;2525908;23;20468;-76
2023/06/19 16:56:26;;;;;;;516.55;285.33;;;;;;;;;;2529566;23;20010;-78
2023/06/19 16:58:13;;;;;;;323.00;165.45;;;;;;;;;;2530268;23;20026;-78
2023/06/19 17:00:10;;;;;;;268.30;140.25;;;;;;;;;;2530666;23;20045;-78
2023/06/19 17:01:45;;;;;;;243.55;129.68;;;;;;;;;;2507283;23;20011;-78
2023/06/19 17:03:09;;;;;;;227.75;138.50;;;;;;;;;;2467030;23;20020;-78
2023/06/19 17:05:14;;;;;;;170.45;105.97;;;;;;;;;;2481254;23;20458;-77
2023/06/19 17:06:59;;;;;;;113.15;70.13;;;;;;;;;;2507446;23;20010;-78
2023/06/19 17:08:39;;;;;;;185.27;125.53;;;;;;;;;;2494972;23;20023;-78
2023/06/19 17:10:17;;;;;;;49.78;33.63;;;;;;;;;;2495356;23;20034;-78
2023/06/19 17:11:38;;;;;;;16.98;9.70;;;;;;;;;;2493527;23;20015;-76
2023/06/19 17:13:02;;;;;;;16.73;10.00;;;;;;;;;;2493172;23;20369;-77
2023/06/19 17:14:34;;;;;;;15.02;8.75;;;;;;;;;;2507164;23;20015;-76
2023/06/19 17:15:55;;;;;;;13.10;7.78;;;;;;;;;;2505521;23;20042;-76
2023/06/19 17:17:16;;;;;;;14.25;7.75;;;;;;;;;;2500537;23;20082;-77
2023/06/19 17:18:42;;;;;;;13.20;8.00;;;;;;;;;;2501888;23;20014;-77
2023/06/19 17:20:08;;;;;;;20.88;10.05;;;;;;;;;;2505249;23;20018;-76
2023/06/19 17:21:29;;;;;;;14.63;7.60;;;;;;;;;;2503920;23;20011;-76
2023/06/19 17:22:51;;;;;;;13.57;7.55;;;;;;;;;;2487812;23;20480;-76
2023/06/19 17:24:15;;;;;;;13.32;7.43;;;;;;;;;;2510522;23;20444;-76
2023/06/19 17:25:39;;;;;;;19.02;9.27;;;;;;;;;;2505598;23;20022;-76
2023/06/19 17:27:00;;;;;;;18.55;9.50;;;;;;;;;;2513201;23;20018;-76
2023/06/19 17:28:22;;;;;;;14.63;7.88;;;;;;;;;;2506729;23;20015;-76
2023/06/19 17:29:47;;;;;;;18.63;8.68;;;;;;;;;;2502625;23;20019;-76
2023/06/19 17:31:13;;;;;;;18.15;8.35;;;;;;;;;;2503196;23;20023;-76
2023/06/19 17:32:38;;;;;;;28.30;12.40;;;;;;;;;;2488593;23;20042;-76
2023/06/19 17:33:59;;;;;;;17.33;9.15;;;;;;;;;;2514950;23;20013;-76
2023/06/19 17:35:24;;;;;;;17.42;8.90;;;;;;;;;;2505465;23;20015;-76
2023/06/19 17:36:54;;;;;;;17.02;8.95;;;;;;;;;;2505079;23;20041;-76
2023/06/19 17:38:15;;;;;;;12.27;7.22;;;;;;;;;;2518173;23;20021;-76
2023/06/19 17:39:36;;;;;;;19.83;9.35;;;;;;;;;;2525604;23;20010;-76
2023/06/19 17:41:04;;;;;;;19.63;8.60;;;;;;;;;;2539310;23;20343;-76
2023/06/19 17:42:25;;;;;;;22.60;9.82;;;;;;;;;;2527829;23;20025;-76
2023/06/19 17:43:52;;;;;;;20.27;9.52;;;;;;;;;;2526100;23;20014;-76
2023/06/19 17:45:19;;;;;;;18.67;9.23;;;;;;;;;;2527697;23;20069;-79
2023/06/19 17:46:50;;;;;;;16.02;7.93;;;;;;;;;;2528764;23;20010;-80
2023/06/19 17:48:16;;;;;;;13.85;7.65;;;;;;;;;;2529493;23;20010;-80
2023/06/19 17:49:38;;;;;;;13.27;7.22;;;;;;;;;;2529371;23;20017;-80
2023/06/19 17:50:59;;;;;;;11.80;7.13;;;;;;;;;;2526901;23;20014;-79
2023/06/19 17:52:20;;;;;;;17.05;7.85;;;;;;;;;;2527440;23;20088;-80
2023/06/19 17:53:47;;;;;;;16.17;7.93;;;;;;;;;;2529177;23;20022;-79
2023/06/19 17:55:13;;;;;;;14.77;8.10;;;;;;;;;;2541067;23;20064;-79
2023/06/19 17:56:37;;;;;;;14.85;7.95;;;;;;;;;;2532084;23;20010;-79
2023/06/19 17:58:01;;;;;;;14.85;7.95;;;;;;;;;;2528418;23;20024;-79
2023/06/19 17:59:28;;;;;;;13.00;7.85;;;;;;;;;;2529279;23;20403;-79
2023/06/19 18:00:54;;;;;;;25.75;9.05;;;;;;;;;;2531408;23;20320;-79
2023/06/19 18:02:27;;;;;;;31.90;11.23;;;;;;;;;;2540999;23;20426;-80
2023/06/19 18:03:51;;;;;;;27.63;10.07;;;;;;;;;;2531252;23;20073;-80
2023/06/19 18:05:12;;;;;;;28.40;9.27;;;;;;;;;;2527495;23;20336;-80
2023/06/19 18:06:34;;;;;;;25.80;9.27;;;;;;;;;;2540401;23;20068;-80
2023/06/19 18:07:55;;;;;;;29.27;10.40;;;;;;;;;;2531074;23;20425;-80
2023/06/19 18:09:16;;;;;;;31.97;9.60;;;;;;;;;;2539531;23;20380;-80
2023/06/19 18:10:40;;;;;;;25.23;9.18;;;;;;;;;;2529936;23;20013;-80